sensor_id;sensor_type;location;lat;lon;timestamp;P1;durP1;ratioP1;P2;durP2;ratioP2
61188;SDS011;47054;39.716;2.904;2023-06-26T00:01:36;16.13;;;5.97;;
61188;SDS011;47054;39.716;2.904;2023-06-26T00:04:22;16.45;;;6.47;;
61188;SDS011;47054;39.716;2.904;2023-06-26T00:07:07;20.58;;;5.68;;
61188;SDS011;47054;39.716;2.904;2023-06-26T00:09:51;12.88;;;5.93;;
61188;SDS011;47054;39.716;2.904;2023-06-26T00:12:38;16.65;;;5.45;;
61188;SDS011;47054;39.716;2.904;2023-06-26T00:15:23;10.90;;;5.68;;
61188;SDS011;47054;39.716;2.904;2023-06-26T00:18:08;11.70;;;5.13;;
61188;SDS011;47054;39.716;2.904;2023-06-26T00:20:53;11.70;;;5.47;;
61188;SDS011;47054;39.716;2.904;2023-06-26T00:23:38;18.02;;;6.10;;
61188;SDS011;47054;39.716;2.904;2023-06-26T00:26:24;13.05;;;5.85;;
61188;SDS011;47054;39.716;2.904;2023-06-26T00:29:09;13.63;;;5.85;;
61188;SDS011;47054;39.716;2.904;2023-06-26T00:31:54;13.35;;;5.82;;
61188;SDS011;47054;39.716;2.904;2023-06-26T00:34:39;16.92;;;6.57;;
61188;SDS011;47054;39.716;2.904;2023-06-26T00:37:26;13.45;;;6.55;;
61188;SDS011;47054;39.716;2.904;2023-06-26T00:40:12;15.95;;;6.40;;
61188;SDS011;47054;39.716;2.904;2023-06-26T00:42:57;10.35;;;5.18;;
61188;SDS011;47054;39.716;2.904;2023-06-26T00:45:42;13.15;;;6.35;;
61188;SDS011;47054;39.716;2.904;2023-06-26T00:48:27;15.25;;;5.93;;
61188;SDS011;47054;39.716;2.904;2023-06-26T00:51:11;14.35;;;6.75;;
61188;SDS011;47054;39.716;2.904;2023-06-26T00:53:57;17.52;;;6.20;;
61188;SDS011;47054;39.716;2.904;2023-06-26T00:56:43;12.88;;;5.32;;
61188;SDS011;47054;39.716;2.904;2023-06-26T00:59:29;16.15;;;6.05;;
61188;SDS011;47054;39.716;2.904;2023-06-26T01:02:18;15.48;;;6.30;;
61188;SDS011;47054;39.716;2.904;2023-06-26T01:05:04;15.80;;;6.80;;
61188;SDS011;47054;39.716;2.904;2023-06-26T01:07:53;20.90;;;6.28;;
61188;SDS011;47054;39.716;2.904;2023-06-26T01:10:39;17.98;;;6.20;;
61188;SDS011;47054;39.716;2.904;2023-06-26T01:13:25;12.43;;;5.85;;
61188;SDS011;47054;39.716;2.904;2023-06-26T01:16:11;12.00;;;5.68;;
61188;SDS011;47054;39.716;2.904;2023-06-26T01:18:58;10.50;;;5.55;;
61188;SDS011;47054;39.716;2.904;2023-06-26T01:21:44;12.23;;;5.63;;
61188;SDS011;47054;39.716;2.904;2023-06-26T01:24:32;12.90;;;6.25;;
61188;SDS011;47054;39.716;2.904;2023-06-26T01:27:21;17.30;;;6.00;;
61188;SDS011;47054;39.716;2.904;2023-06-26T01:30:07;13.85;;;5.60;;
61188;SDS011;47054;39.716;2.904;2023-06-26T01:32:53;12.10;;;5.55;;
61188;SDS011;47054;39.716;2.904;2023-06-26T01:35:40;11.13;;;5.70;;
61188;SDS011;47054;39.716;2.904;2023-06-26T01:38:25;15.15;;;6.07;;
61188;SDS011;47054;39.716;2.904;2023-06-26T01:41:10;12.20;;;6.15;;
61188;SDS011;47054;39.716;2.904;2023-06-26T01:44:11;14.75;;;5.80;;
61188;SDS011;47054;39.716;2.904;2023-06-26T01:47:00;15.90;;;6.07;;
61188;SDS011;47054;39.716;2.904;2023-06-26T01:52:40;12.90;;;5.68;;
61188;SDS011;47054;39.716;2.904;2023-06-26T01:56:12;17.08;;;6.00;;
61188;SDS011;47054;39.716;2.904;2023-06-26T01:58:39;11.77;;;5.60;;
61188;SDS011;47054;39.716;2.904;2023-06-26T02:01:27;12.50;;;5.78;;
61188;SDS011;47054;39.716;2.904;2023-06-26T02:04:12;14.18;;;6.45;;
61188;SDS011;47054;39.716;2.904;2023-06-26T02:06:56;13.38;;;6.25;;
61188;SDS011;47054;39.716;2.904;2023-06-26T02:09:42;14.25;;;6.03;;
61188;SDS011;47054;39.716;2.904;2023-06-26T02:12:28;13.32;;;6.32;;
61188;SDS011;47054;39.716;2.904;2023-06-26T02:15:13;13.55;;;5.68;;
61188;SDS011;47054;39.716;2.904;2023-06-26T02:17:59;14.68;;;6.00;;
61188;SDS011;47054;39.716;2.904;2023-06-26T19:33:26;7.03;;;3.58;;
61188;SDS011;47054;39.716;2.904;2023-06-26T19:36:12;9.55;;;4.00;;
61188;SDS011;47054;39.716;2.904;2023-06-26T19:38:58;11.23;;;4.15;;
61188;SDS011;47054;39.716;2.904;2023-06-26T19:41:43;8.65;;;4.43;;
61188;SDS011;47054;39.716;2.904;2023-06-26T19:44:27;16.52;;;4.00;;
61188;SDS011;47054;39.716;2.904;2023-06-26T19:47:12;8.35;;;4.22;;
61188;SDS011;47054;39.716;2.904;2023-06-26T19:49:57;12.75;;;4.03;;
61188;SDS011;47054;39.716;2.904;2023-06-26T19:52:41;9.82;;;4.05;;
61188;SDS011;47054;39.716;2.904;2023-06-26T19:55:26;11.55;;;4.22;;
61188;SDS011;47054;39.716;2.904;2023-06-26T19:58:10;11.88;;;4.60;;
61188;SDS011;47054;39.716;2.904;2023-06-26T20:00:55;9.57;;;4.28;;
61188;SDS011;47054;39.716;2.904;2023-06-26T20:03:40;13.13;;;4.75;;
61188;SDS011;47054;39.716;2.904;2023-06-26T20:06:24;15.70;;;4.78;;
61188;SDS011;47054;39.716;2.904;2023-06-26T20:09:10;12.52;;;4.60;;
61188;SDS011;47054;39.716;2.904;2023-06-26T20:11:55;7.20;;;3.70;;
61188;SDS011;47054;39.716;2.904;2023-06-26T20:14:40;16.92;;;4.75;;
61188;SDS011;47054;39.716;2.904;2023-06-26T20:17:24;11.93;;;4.32;;
61188;SDS011;47054;39.716;2.904;2023-06-26T20:20:09;9.15;;;3.80;;
61188;SDS011;47054;39.716;2.904;2023-06-26T20:22:54;11.68;;;4.15;;
61188;SDS011;47054;39.716;2.904;2023-06-26T20:25:39;8.77;;;4.13;;
61188;SDS011;47054;39.716;2.904;2023-06-26T20:28:25;8.57;;;4.13;;
61188;SDS011;47054;39.716;2.904;2023-06-26T20:31:10;13.90;;;4.15;;
61188;SDS011;47054;39.716;2.904;2023-06-26T20:33:54;11.85;;;4.68;;
61188;SDS011;47054;39.716;2.904;2023-06-26T20:36:39;18.92;;;4.65;;
61188;SDS011;47054;39.716;2.904;2023-06-26T20:39:23;9.60;;;4.35;;
61188;SDS011;47054;39.716;2.904;2023-06-26T20:42:10;8.95;;;4.45;;
61188;SDS011;47054;39.716;2.904;2023-06-26T20:44:55;11.32;;;4.00;;
61188;SDS011;47054;39.716;2.904;2023-06-26T20:47:44;14.10;;;4.55;;
61188;SDS011;47054;39.716;2.904;2023-06-26T20:50:29;8.77;;;4.38;;
61188;SDS011;47054;39.716;2.904;2023-06-26T20:53:14;12.45;;;4.78;;
61188;SDS011;47054;39.716;2.904;2023-06-26T20:55:59;13.25;;;4.05;;
61188;SDS011;47054;39.716;2.904;2023-06-26T20:58:44;10.90;;;4.85;;
61188;SDS011;47054;39.716;2.904;2023-06-26T21:01:29;12.93;;;5.43;;
61188;SDS011;47054;39.716;2.904;2023-06-26T21:04:14;11.63;;;4.88;;
61188;SDS011;47054;39.716;2.904;2023-06-26T21:06:58;10.23;;;4.57;;
61188;SDS011;47054;39.716;2.904;2023-06-26T21:09:46;9.23;;;4.20;;
61188;SDS011;47054;39.716;2.904;2023-06-26T21:12:32;15.38;;;4.65;;
61188;SDS011;47054;39.716;2.904;2023-06-26T21:15:17;13.48;;;5.32;;
61188;SDS011;47054;39.716;2.904;2023-06-26T21:18:01;13.75;;;5.50;;
61188;SDS011;47054;39.716;2.904;2023-06-26T21:20:45;14.93;;;5.60;;
61188;SDS011;47054;39.716;2.904;2023-06-26T21:23:30;12.98;;;5.25;;
61188;SDS011;47054;39.716;2.904;2023-06-26T21:26:14;14.10;;;4.97;;
61188;SDS011;47054;39.716;2.904;2023-06-26T21:28:59;11.82;;;4.82;;
61188;SDS011;47054;39.716;2.904;2023-06-26T21:31:43;18.30;;;5.15;;
61188;SDS011;47054;39.716;2.904;2023-06-26T21:34:28;15.43;;;5.07;;
61188;SDS011;47054;39.716;2.904;2023-06-26T21:37:12;11.73;;;4.80;;
61188;SDS011;47054;39.716;2.904;2023-06-26T21:39:56;14.45;;;5.40;;
61188;SDS011;47054;39.716;2.904;2023-06-26T21:42:41;12.57;;;5.95;;
61188;SDS011;47054;39.716;2.904;2023-06-26T21:45:25;15.77;;;5.50;;
61188;SDS011;47054;39.716;2.904;2023-06-26T21:48:10;14.35;;;5.15;;
61188;SDS011;47054;39.716;2.904;2023-06-26T21:50:55;23.33;;;6.07;;
61188;SDS011;47054;39.716;2.904;2023-06-26T21:53:40;9.85;;;5.03;;
61188;SDS011;47054;39.716;2.904;2023-06-26T21:56:25;11.82;;;5.50;;
61188;SDS011;47054;39.716;2.904;2023-06-26T21:59:09;16.65;;;5.63;;
61188;SDS011;47054;39.716;2.904;2023-06-26T22:01:54;10.07;;;5.03;;
61188;SDS011;47054;39.716;2.904;2023-06-26T22:04:38;9.82;;;5.28;;
61188;SDS011;47054;39.716;2.904;2023-06-26T22:07:23;19.80;;;5.18;;
61188;SDS011;47054;39.716;2.904;2023-06-26T22:10:08;11.63;;;5.25;;
61188;SDS011;47054;39.716;2.904;2023-06-26T22:12:52;13.18;;;5.68;;
61188;SDS011;47054;39.716;2.904;2023-06-26T22:15:37;17.92;;;5.93;;
61188;SDS011;47054;39.716;2.904;2023-06-26T22:18:21;18.77;;;5.65;;
61188;SDS011;47054;39.716;2.904;2023-06-26T22:21:06;10.70;;;5.30;;
61188;SDS011;47054;39.716;2.904;2023-06-26T22:23:51;12.45;;;5.70;;
61188;SDS011;47054;39.716;2.904;2023-06-26T22:26:35;14.15;;;5.38;;
61188;SDS011;47054;39.716;2.904;2023-06-26T22:29:20;13.10;;;5.38;;
61188;SDS011;47054;39.716;2.904;2023-06-26T22:32:06;17.65;;;5.47;;
61188;SDS011;47054;39.716;2.904;2023-06-26T22:34:50;15.35;;;5.38;;
61188;SDS011;47054;39.716;2.904;2023-06-26T22:37:35;10.68;;;5.35;;
61188;SDS011;47054;39.716;2.904;2023-06-26T22:40:20;15.55;;;6.07;;
61188;SDS011;47054;39.716;2.904;2023-06-26T22:43:05;10.57;;;5.40;;
61188;SDS011;47054;39.716;2.904;2023-06-26T22:45:51;13.85;;;5.63;;
61188;SDS011;47054;39.716;2.904;2023-06-26T22:48:37;14.48;;;5.95;;
61188;SDS011;47054;39.716;2.904;2023-06-26T22:51:21;15.60;;;5.63;;
61188;SDS011;47054;39.716;2.904;2023-06-26T22:54:06;12.80;;;6.60;;
61188;SDS011;47054;39.716;2.904;2023-06-26T22:56:50;11.93;;;5.40;;
61188;SDS011;47054;39.716;2.904;2023-06-26T22:59:35;12.27;;;5.82;;
61188;SDS011;47054;39.716;2.904;2023-06-26T23:02:19;11.23;;;5.75;;
61188;SDS011;47054;39.716;2.904;2023-06-26T23:05:05;14.80;;;5.68;;
61188;SDS011;47054;39.716;2.904;2023-06-26T23:07:51;15.27;;;5.78;;
61188;SDS011;47054;39.716;2.904;2023-06-26T23:10:36;13.02;;;5.55;;
61188;SDS011;47054;39.716;2.904;2023-06-26T23:13:20;10.85;;;5.40;;
61188;SDS011;47054;39.716;2.904;2023-06-26T23:16:06;12.95;;;5.47;;
61188;SDS011;47054;39.716;2.904;2023-06-26T23:18:50;11.25;;;5.10;;
61188;SDS011;47054;39.716;2.904;2023-06-26T23:21:35;13.07;;;5.50;;
61188;SDS011;47054;39.716;2.904;2023-06-26T23:24:20;15.07;;;5.70;;
61188;SDS011;47054;39.716;2.904;2023-06-26T23:27:07;14.80;;;6.25;;
61188;SDS011;47054;39.716;2.904;2023-06-26T23:29:52;13.80;;;5.90;;
61188;SDS011;47054;39.716;2.904;2023-06-26T23:32:38;11.15;;;5.72;;
61188;SDS011;47054;39.716;2.904;2023-06-26T23:35:24;14.00;;;5.88;;
61188;SDS011;47054;39.716;2.904;2023-06-26T23:38:09;12.88;;;6.15;;
61188;SDS011;47054;39.716;2.904;2023-06-26T23:40:54;10.68;;;5.85;;
61188;SDS011;47054;39.716;2.904;2023-06-26T23:43:38;14.93;;;5.55;;
61188;SDS011;47054;39.716;2.904;2023-06-26T23:46:24;12.80;;;6.03;;
61188;SDS011;47054;39.716;2.904;2023-06-26T23:49:12;22.55;;;5.95;;
61188;SDS011;47054;39.716;2.904;2023-06-26T23:51:57;13.30;;;5.63;;
61188;SDS011;47054;39.716;2.904;2023-06-26T23:54:42;13.75;;;6.70;;
61188;SDS011;47054;39.716;2.904;2023-06-26T23:57:27;14.13;;;5.57;;
